Time;durP1;ratioP1;P1;durP2;ratioP2;P2;SDS_P1;SDS_P2;PMS_P1;PMS_P2;Temp;Humidity;BMP_temperature;BMP_pressure;BME280_temperature;BME280_humidity;BME280_pressure;Samples;Min_cycle;Max_cycle;Signal;HPM_P1;HPM_P2
2021/12/08 00:00:55;;;;;;;;;;;15.90;43.60;14.70;99194.00;;;;5062723;28;19955;-62
2021/12/08 00:03:41;;;;;;;;;;;15.90;43.60;14.70;99192.00;;;;5088072;27;19963;-62
2021/12/08 00:06:27;;;;;;;;;;;15.90;43.60;14.80;99183.00;;;;5077824;28;19921;-62
2021/12/08 00:09:28;;;;;;;;;;;15.90;43.60;14.70;99180.00;;;;5074275;28;20353;-62
2021/12/08 00:15:19;;;;;;;;;;;15.90;43.60;14.70;99168.00;;;;5097867;27;19916;-62
2021/12/08 00:18:06;;;;;;;;;;;15.90;43.60;14.70;99157.00;;;;5080552;28;19916;-62
2021/12/08 00:20:55;;;;;;;;;;;15.90;43.60;14.70;99144.00;;;;5096060;28;19920;-62
2021/12/08 00:23:41;;;;;;;;;;;15.90;43.60;14.70;99143.00;;;;5081844;28;20289;-62
2021/12/08 00:26:27;;;;;;;;;;;15.80;43.60;14.70;99133.00;;;;5051114;28;19963;-61
2021/12/08 00:29:14;;;;;;;;;;;15.90;43.60;14.70;99135.00;;;;5080648;28;19933;-62
2021/12/08 00:32:00;;;;;;;;;;;15.80;43.60;14.70;99132.00;;;;5082733;28;19927;-62
2021/12/08 00:34:47;;;;;;;;;;;15.80;43.60;14.70;99129.00;;;;5076266;28;19985;-61
2021/12/08 00:37:33;;;;;;;;;;;15.80;43.60;14.70;99129.00;;;;5082359;28;19923;-61
2021/12/08 00:40:19;;;;;;;;;;;15.80;43.60;14.70;99131.00;;;;5073968;28;19972;-62
2021/12/08 00:43:06;;;;;;;;;;;15.90;43.60;14.70;99134.00;;;;5072226;28;19931;-62
2021/12/08 00:45:53;;;;;;;;;;;15.80;43.60;14.70;99117.00;;;;5082960;28;19923;-61
2021/12/08 00:48:46;;;;;;;;;;;15.80;43.60;14.70;99124.00;;;;5060517;28;19920;-62
2021/12/08 00:51:32;;;;;;;;;;;15.80;43.60;14.70;99123.00;;;;5075796;28;20313;-62
2021/12/08 00:54:18;;;;;;;;;;;15.80;43.60;14.70;99117.00;;;;5058906;28;20473;-62
2021/12/08 00:57:04;;;;;;;;;;;15.80;43.60;14.70;99129.00;;;;5076158;28;19916;-62
2021/12/08 00:59:50;;;;;;;;;;;15.80;43.60;14.70;99117.00;;;;5077178;28;20015;-62
2021/12/08 01:02:39;;;;;;;;;;;15.80;43.60;14.70;99116.00;;;;5067306;28;19916;-61
2021/12/08 01:05:31;;;;;;;;;;;15.80;43.70;14.70;99109.00;;;;5058145;28;19948;-62
2021/12/08 01:08:18;;;;;;;;;;;15.80;43.70;14.70;99112.00;;;;5036576;28;19943;-62
2021/12/08 01:11:09;;;;;;;;;;;15.80;43.70;14.70;99105.00;;;;5057644;28;20254;-62
2021/12/08 01:13:55;;;;;;;;;;;15.80;43.70;14.70;99107.00;;;;5074936;28;19990;-62
2021/12/08 01:16:41;;;;;;;;;;;15.80;43.70;14.70;99101.00;;;;5070519;28;19927;-61
2021/12/08 01:19:28;;;;;;;;;;;15.80;43.70;14.70;99098.00;;;;5069190;28;20008;-62
2021/12/08 01:22:14;;;;;;;;;;;15.80;43.70;14.70;99100.00;;;;5059137;28;20288;-62
2021/12/08 01:25:00;;;;;;;;;;;15.80;43.70;14.70;99093.00;;;;5080897;28;20400;-62
2021/12/08 01:27:46;;;;;;;;;;;15.80;43.70;14.70;99090.00;;;;5075892;28;19931;-61
2021/12/08 01:30:32;;;;;;;;;;;15.80;43.80;14.60;99084.00;;;;5077785;28;20011;-62
2021/12/08 01:33:19;;;;;;;;;;;15.80;43.80;14.60;99080.00;;;;5089765;28;19959;-62
2021/12/08 01:36:06;;;;;;;;;;;15.80;43.80;14.60;99067.00;;;;5059955;28;19939;-61
2021/12/08 01:38:52;;;;;;;;;;;15.80;43.80;14.70;99080.00;;;;5082757;28;19924;-62
2021/12/08 01:41:39;;;;;;;;;;;15.80;43.80;14.70;99082.00;;;;5077573;28;19959;-62
2021/12/08 01:47:30;;;;;;;;;;;15.80;43.90;14.60;99075.00;;;;5068232;28;20251;-62
2021/12/08 01:50:16;;;;;;;;;;;15.80;43.80;14.60;99065.00;;;;5059623;28;19924;-61
2021/12/08 01:53:03;;;;;;;;;;;15.80;43.90;14.60;99070.00;;;;5062689;28;19947;-61
2021/12/08 01:55:50;;;;;;;;;;;15.80;43.90;14.70;99057.00;;;;5076579;28;19916;-62
2021/12/08 01:58:36;;;;;;;;;;;15.70;43.80;14.70;99061.00;;;;5064282;28;20007;-62
2021/12/08 02:01:24;;;;;;;;;;;15.80;43.90;14.70;99060.00;;;;5055990;28;19924;-62
2021/12/08 02:04:11;;;;;;;;;;;15.80;43.80;14.70;99063.00;;;;5053718;28;19924;-62
2021/12/08 02:06:58;;;;;;;;;;;15.80;43.90;14.70;99065.00;;;;5069124;28;19990;-62
2021/12/08 02:09:44;;;;;;;;;;;15.80;43.90;14.70;99056.00;;;;5082562;28;19924;-62
2021/12/08 02:12:33;;;;;;;;;;;15.80;43.90;14.70;99065.00;;;;5100605;28;19961;-62
2021/12/08 02:15:20;;;;;;;;;;;15.80;43.90;14.70;99075.00;;;;5078360;28;21835;-61
2021/12/08 02:18:08;;;;;;;;;;;15.80;43.90;14.70;99054.00;;;;5086436;28;19916;-61
2021/12/08 02:20:57;;;;;;;;;;;15.80;43.90;14.70;99050.00;;;;5078757;28;19927;-62
2021/12/08 02:23:43;;;;;;;;;;;15.80;43.90;14.70;99059.00;;;;5065404;28;20435;-62
2021/12/08 02:26:29;;;;;;;;;;;15.80;43.90;14.70;99065.00;;;;5090912;28;19915;-61
2021/12/08 02:29:26;;;;;;;;;;;15.80;43.90;14.70;99054.00;;;;5089591;28;19943;-62
2021/12/08 02:32:42;;;;;;;;;;;15.80;43.90;14.70;99059.00;;;;5101650;28;19916;-61
2021/12/08 02:47:53;;;;;;;;;;;15.80;44.00;14.60;99035.00;;;;5077392;28;19920;-62
2021/12/08 02:50:40;;;;;;;;;;;15.70;44.00;14.60;99033.00;;;;5097941;28;19973;-61
2021/12/08 02:53:27;;;;;;;;;;;15.70;44.00;14.60;99027.00;;;;5080135;28;19952;-62
2021/12/08 02:56:14;;;;;;;;;;;15.70;44.00;14.60;99033.00;;;;5090710;28;19923;-62
2021/12/08 02:59:01;;;;;;;;;;;15.70;44.00;14.60;99029.00;;;;5068957;28;19924;-62
2021/12/08 03:01:47;;;;;;;;;;;15.70;44.10;14.60;99035.00;;;;5049942;28;20520;-62
2021/12/08 03:04:33;;;;;;;;;;;15.70;44.00;14.60;99051.00;;;;5067987;28;19920;-61
2021/12/08 03:07:19;;;;;;;;;;;15.70;44.00;14.60;99042.00;;;;5075763;28;19939;-62
2021/12/08 03:10:10;;;;;;;;;;;15.70;44.10;14.60;99044.00;;;;5070946;28;19967;-62
2021/12/08 03:12:57;;;;;;;;;;;15.70;44.10;14.60;99058.00;;;;5081531;28;20427;-62
2021/12/08 03:15:43;;;;;;;;;;;15.70;44.10;14.60;99056.00;;;;5067988;28;20378;-62
2021/12/08 03:18:34;;;;;;;;;;;15.70;44.10;14.60;99068.00;;;;5069699;28;19923;-62
2021/12/08 03:21:28;;;;;;;;;;;15.70;44.10;14.60;99061.00;;;;5065003;28;19938;-62
2021/12/08 03:27:10;;;;;;;;;;;15.70;44.20;14.60;99064.00;;;;5062697;28;19920;-61
2021/12/08 03:30:00;;;;;;;;;;;15.70;44.20;14.50;99061.00;;;;5059473;28;20267;-62
2021/12/08 03:32:47;;;;;;;;;;;15.70;44.20;14.60;99063.00;;;;5068622;28;19967;-62
2021/12/08 03:35:33;;;;;;;;;;;15.70;44.20;14.50;99070.00;;;;5076038;28;19925;-62
2021/12/08 03:38:19;;;;;;;;;;;15.70;44.20;14.60;99068.00;;;;5069069;28;20011;-62
2021/12/08 03:41:06;;;;;;;;;;;15.70;44.20;14.60;99068.00;;;;5072763;28;19924;-62
2021/12/08 03:43:52;;;;;;;;;;;15.70;44.20;14.60;99081.00;;;;5077505;28;20353;-62
2021/12/08 03:46:41;;;;;;;;;;;15.70;44.20;14.50;99082.00;;;;5071556;28;20422;-62
2021/12/08 03:49:28;;;;;;;;;;;15.70;44.20;14.60;99075.00;;;;5075577;28;20530;-62
2021/12/08 03:52:14;;;;;;;;;;;15.70;44.20;14.60;99076.00;;;;5080781;28;20285;-62
2021/12/08 03:55:00;;;;;;;;;;;15.70;44.20;14.60;99082.00;;;;5077806;28;20001;-62
2021/12/08 03:57:46;;;;;;;;;;;15.70;44.30;14.60;99074.00;;;;5075014;28;20099;-63
2021/12/08 04:00:32;;;;;;;;;;;15.70;44.20;14.60;99081.00;;;;5056634;28;19916;-62
2021/12/08 04:03:19;;;;;;;;;;;15.70;44.30;14.60;99087.00;;;;5067780;28;20321;-62
2021/12/08 04:06:15;;;;;;;;;;;15.70;44.30;14.60;99086.00;;;;5074484;28;19916;-62
2021/12/08 04:09:05;;;;;;;;;;;15.70;44.30;14.60;99085.00;;;;5064521;28;20453;-62
2021/12/08 04:11:51;;;;;;;;;;;15.70;44.30;14.60;99089.00;;;;5077943;28;20017;-62
2021/12/08 04:14:44;;;;;;;;;;;15.60;44.20;14.60;99077.00;;;;5076357;28;19962;-62
2021/12/08 04:17:36;;;;;;;;;;;15.70;44.30;14.60;99089.00;;;;5080053;28;20062;-62
2021/12/08 04:20:29;;;;;;;;;;;15.70;44.40;14.50;99084.00;;;;5061721;28;19923;-61
2021/12/08 04:23:16;;;;;;;;;;;15.70;44.30;14.60;99082.00;;;;5067979;28;19923;-62
2021/12/08 04:26:04;;;;;;;;;;;15.70;44.30;14.60;99102.00;;;;5066372;28;19923;-62
2021/12/08 04:28:50;;;;;;;;;;;15.70;44.30;14.60;99086.00;;;;5081866;28;20062;-62
2021/12/08 04:31:37;;;;;;;;;;;15.70;44.30;14.60;99090.00;;;;5086499;28;20274;-62
2021/12/08 04:34:27;;;;;;;;;;;15.70;44.30;14.60;99081.00;;;;5071053;28;19963;-62
2021/12/08 04:37:20;;;;;;;;;;;15.70;44.30;14.60;99094.00;;;;5078242;28;19916;-61
2021/12/08 04:40:42;;;;;;;;;;;15.70;44.30;14.60;99092.00;;;;5057368;28;20273;-62
2021/12/08 04:43:23;;;;;;;;;;;15.70;44.30;14.60;99087.00;;;;5052660;28;19927;-62
2021/12/08 04:47:16;;;;;;;;;;;15.70;44.30;14.60;99094.00;;;;5057192;28;20002;-62
2021/12/08 04:53:12;;;;;;;;;;;15.70;44.40;14.60;99093.00;;;;5054763;28;20370;-61
2021/12/08 05:08:12;;;;;;;;;;;15.70;44.40;14.60;99084.00;;;;5059656;28;19932;-62
2021/12/08 05:10:58;;;;;;;;;;;15.70;44.40;14.60;99089.00;;;;5053738;28;19952;-62
2021/12/08 05:13:45;;;;;;;;;;;15.70;44.50;14.60;99097.00;;;;5055212;28;19920;-62
2021/12/08 05:16:32;;;;;;;;;;;15.70;44.50;14.60;99092.00;;;;5045960;28;20364;-62
2021/12/08 05:19:20;;;;;;;;;;;15.70;44.50;14.60;99101.00;;;;5043953;28;19962;-62
2021/12/08 05:22:09;;;;;;;;;;;15.70;44.50;14.60;99106.00;;;;5056044;28;20281;-62
2021/12/08 05:24:59;;;;;;;;;;;15.70;44.50;14.60;99100.00;;;;5061120;28;19916;-62
2021/12/08 05:27:48;;;;;;;;;;;15.70;44.50;14.60;99112.00;;;;5061836;28;19921;-62
2021/12/08 05:30:37;;;;;;;;;;;15.70;44.50;14.60;99126.00;;;;5038636;28;19916;-62
2021/12/08 05:33:24;;;;;;;;;;;15.70;44.50;14.60;99124.00;;;;5049579;28;19916;-62
2021/12/08 05:36:11;;;;;;;;;;;15.70;44.50;14.60;99121.00;;;;5046557;28;19931;-62
2021/12/08 05:38:57;;;;;;;;;;;15.70;44.50;14.60;99122.00;;;;5048243;28;19921;-62
2021/12/08 05:41:43;;;;;;;;;;;15.70;44.50;14.60;99122.00;;;;5061768;28;19965;-62
2021/12/08 05:44:30;;;;;;;;;;;15.70;44.50;14.60;99131.00;;;;5057029;28;19916;-62
2021/12/08 05:47:21;;;;;;;;;;;15.70;44.50;14.60;99122.00;;;;5075761;28;19946;-62
2021/12/08 05:50:09;;;;;;;;;;;15.70;44.50;14.60;99138.00;;;;5072268;28;20382;-62
2021/12/08 05:52:56;;;;;;;;;;;15.70;44.50;14.60;99151.00;;;;5059095;28;20019;-62
2021/12/08 05:55:42;;;;;;;;;;;15.70;44.50;14.60;99159.00;;;;5087694;28;19916;-62
2021/12/08 05:58:29;;;;;;;;;;;15.70;44.50;14.60;99152.00;;;;5072094;28;19970;-61
2021/12/08 06:01:17;;;;;;;;;;;15.70;44.50;14.60;99161.00;;;;5073329;28;19926;-61
2021/12/08 06:04:04;;;;;;;;;;;15.70;45.20;14.60;99157.00;;;;5068616;28;20315;-62
2021/12/08 06:06:50;;;;;;;;;;;15.70;44.50;14.60;99156.00;;;;5071356;28;20001;-62
2021/12/08 06:09:36;;;;;;;;;;;15.70;44.50;14.60;99158.00;;;;5057018;28;19958;-62
2021/12/08 06:12:22;;;;;;;;;;;15.70;44.50;14.60;99159.00;;;;5083403;28;19927;-62
2021/12/08 06:15:09;;;;;;;;;;;15.70;44.50;14.60;99165.00;;;;5067345;28;19947;-62
2021/12/08 06:17:55;;;;;;;;;;;15.70;44.50;14.60;99169.00;;;;5070976;28;19923;-62
2021/12/08 06:20:41;;;;;;;;;;;15.70;44.50;14.60;99157.00;;;;5071369;28;19923;-62
2021/12/08 06:23:28;;;;;;;;;;;15.70;44.50;14.60;99158.00;;;;5092946;28;19916;-62
2021/12/08 06:26:17;;;;;;;;;;;15.70;44.50;14.60;99156.00;;;;5071709;28;19967;-62
2021/12/08 06:29:04;;;;;;;;;;;15.70;44.50;14.60;99169.00;;;;5054776;28;19921;-62
2021/12/08 06:31:52;;;;;;;;;;;15.70;44.50;14.60;99171.00;;;;5051783;28;20014;-62
2021/12/08 06:34:40;;;;;;;;;;;15.70;44.50;14.60;99168.00;;;;5068091;28;20007;-62
2021/12/08 06:37:29;;;;;;;;;;;15.70;44.50;14.60;99174.00;;;;5078426;28;19923;-62
2021/12/08 06:40:31;;;;;;;;;;;15.70;44.50;14.60;99173.00;;;;5083766;28;19921;-62
2021/12/08 06:43:20;;;;;;;;;;;15.70;44.50;14.60;99170.00;;;;5085412;28;19916;-62
2021/12/08 06:46:06;;;;;;;;;;;15.70;44.50;14.60;99173.00;;;;5080271;28;19924;-62
2021/12/08 06:48:54;;;;;;;;;;;15.70;44.50;14.60;99183.00;;;;5060569;28;19924;-62
2021/12/08 06:51:42;;;;;;;;;;;15.70;44.50;14.60;99189.00;;;;5070144;28;19921;-62
2021/12/08 06:54:32;;;;;;;;;;;15.70;44.50;14.60;99191.00;;;;5064096;28;20293;-62
2021/12/08 06:57:26;;;;;;;;;;;15.70;44.50;14.60;99185.00;;;;5075492;28;19916;-61
2021/12/08 07:00:36;;;;;;;;;;;15.70;44.50;14.60;99196.00;;;;5071403;28;19916;-61
2021/12/08 07:06:59;;;;;;;;;;;15.70;44.50;14.60;99183.00;;;;5058724;28;19924;-62
2021/12/08 07:10:06;;;;;;;;;;;15.70;44.50;14.60;99194.00;;;;5094671;28;19924;-62
2021/12/08 07:13:13;;;;;;;;;;;15.70;44.50;14.60;99191.00;;;;5055881;28;19916;-62
2021/12/08 07:16:11;;;;;;;;;;;15.70;44.50;14.60;99198.00;;;;5078622;28;20384;-61
2021/12/08 07:19:02;;;;;;;;;;;15.70;44.50;14.60;99194.00;;;;5073603;28;20308;-62
2021/12/08 07:21:48;;;;;;;;;;;15.70;44.50;14.60;99207.00;;;;5083768;28;19923;-62
2021/12/08 07:24:38;;;;;;;;;;;15.70;44.50;14.60;99220.00;;;;5060719;28;20011;-62
2021/12/08 07:27:26;;;;;;;;;;;15.70;44.50;14.60;99214.00;;;;5077149;28;19928;-61
2021/12/08 07:30:19;;;;;;;;;;;15.70;44.50;14.60;99218.00;;;;5085703;28;19923;-62
2021/12/08 07:33:05;;;;;;;;;;;15.70;44.50;14.60;99222.00;;;;5040344;28;19917;-61
2021/12/08 07:35:53;;;;;;;;;;;15.70;44.60;14.60;99216.00;;;;5058203;28;19916;-62
2021/12/08 07:38:39;;;;;;;;;;;15.70;44.60;14.60;99213.00;;;;5084031;28;19921;-62
2021/12/08 07:41:32;;;;;;;;;;;15.70;44.60;14.60;99218.00;;;;5073645;28;20370;-62
2021/12/08 07:44:18;;;;;;;;;;;15.70;44.60;14.60;99224.00;;;;5081468;28;19920;-62
2021/12/08 07:47:08;;;;;;;;;;;15.70;44.60;14.60;99236.00;;;;5068746;28;19924;-61
2021/12/08 07:50:05;;;;;;;;;;;15.70;44.50;14.60;99241.00;;;;5068627;28;19917;-62
2021/12/08 07:52:52;;;;;;;;;;;15.70;44.60;14.60;99248.00;;;;5088550;28;19999;-61
2021/12/08 07:55:41;;;;;;;;;;;15.80;44.60;14.60;99248.00;;;;5075111;28;19916;-62
2021/12/08 07:58:27;;;;;;;;;;;15.70;44.60;14.60;99255.00;;;;5074529;28;19923;-62
2021/12/08 08:01:19;;;;;;;;;;;15.70;44.60;14.60;99254.00;;;;5076521;28;20292;-62
2021/12/08 08:04:07;;;;;;;;;;;15.70;44.60;14.60;99255.00;;;;5083512;28;19917;-62
2021/12/08 08:06:56;;;;;;;;;;;15.70;44.60;14.60;99264.00;;;;5072675;28;19920;-62
2021/12/08 08:09:43;;;;;;;;;;;15.70;44.60;14.60;99270.00;;;;5069312;28;19920;-62
2021/12/08 08:12:31;;;;;;;;;;;15.70;44.60;14.60;99262.00;;;;5051615;28;19916;-62
2021/12/08 08:15:21;;;;;;;;;;;15.80;44.60;14.60;99272.00;;;;5071458;28;20453;-62
2021/12/08 08:18:09;;;;;;;;;;;15.70;44.60;14.60;99272.00;;;;5063733;28;20420;-62
2021/12/08 08:21:00;;;;;;;;;;;15.70;44.60;14.60;99281.00;;;;5059388;28;20288;-62
2021/12/08 08:23:46;;;;;;;;;;;15.80;44.70;14.70;99287.00;;;;5082380;28;20129;-63
2021/12/08 08:26:32;;;;;;;;;;;15.70;44.60;14.70;99291.00;;;;5078264;28;19921;-62
2021/12/08 08:29:18;;;;;;;;;;;15.80;44.70;14.70;99295.00;;;;5076215;28;20372;-62
2021/12/08 08:32:25;;;;;;;;;;;15.80;44.70;14.70;99285.00;;;;5071736;28;19924;-62
2021/12/08 08:35:17;;;;;;;;;;;15.80;44.60;14.70;99281.00;;;;5058398;28;20365;-62
2021/12/08 08:38:05;;;;;;;;;;;15.80;44.70;14.70;99293.00;;;;5074995;28;20393;-62
2021/12/08 08:41:07;;;;;;;;;;;15.80;44.70;14.70;99306.00;;;;5067152;28;19916;-62
2021/12/08 08:43:55;;;;;;;;;;;15.80;44.60;14.70;99304.00;;;;5042221;28;19917;-62
2021/12/08 08:46:43;;;;;;;;;;;15.80;44.70;14.70;99314.00;;;;5058895;28;19922;-62
2021/12/08 08:49:30;;;;;;;;;;;15.80;44.60;14.70;99316.00;;;;5081033;28;19920;-62
2021/12/08 08:52:27;;;;;;;;;;;15.80;44.60;14.70;99312.00;;;;5061274;28;19926;-62
2021/12/08 08:55:23;;;;;;;;;;;15.80;44.60;14.70;99318.00;;;;5078856;28;19984;-62
2021/12/08 08:58:11;;;;;;;;;;;15.80;44.60;14.60;99321.00;;;;5074114;28;20354;-62
2021/12/08 09:01:22;;;;;;;;;;;15.80;44.60;14.60;99329.00;;;;5086824;28;19920;-62
2021/12/08 09:04:10;;;;;;;;;;;15.80;44.60;14.60;99324.00;;;;5058863;28;20086;-62
2021/12/08 09:07:03;;;;;;;;;;;15.80;44.60;14.60;99329.00;;;;5079134;28;19997;-62
2021/12/08 09:09:50;;;;;;;;;;;15.80;44.60;14.60;99323.00;;;;5071778;28;19973;-62
2021/12/08 09:12:43;;;;;;;;;;;15.80;44.70;14.60;99335.00;;;;5060174;28;19916;-61
2021/12/08 09:15:35;;;;;;;;;;;15.80;44.70;14.60;99334.00;;;;5075425;28;19916;-62
2021/12/08 09:18:39;;;;;;;;;;;15.70;44.70;14.60;99340.00;;;;5065227;28;19916;-62
2021/12/08 09:21:28;;;;;;;;;;;15.80;44.70;14.60;99344.00;;;;5066022;28;19945;-62
2021/12/08 09:24:23;;;;;;;;;;;15.80;44.70;14.60;99344.00;;;;5045234;28;19916;-62
2021/12/08 09:27:09;;;;;;;;;;;15.80;44.70;14.60;99346.00;;;;5072291;28;20416;-62
2021/12/08 09:30:03;;;;;;;;;;;15.70;44.70;14.60;99341.00;;;;5059107;28;19920;-62
2021/12/08 09:32:57;;;;;;;;;;;15.70;44.70;14.60;99345.00;;;;5091790;28;19939;-62
2021/12/08 09:36:03;;;;;;;;;;;15.70;44.70;14.60;99339.00;;;;5061861;28;20284;-62
2021/12/08 09:38:52;;;;;;;;;;;15.70;44.70;14.60;99336.00;;;;5057266;28;19921;-62
2021/12/08 09:42:07;;;;;;;;;;;15.70;44.70;14.60;99326.00;;;;5053436;28;19916;-62
2021/12/08 09:45:00;;;;;;;;;;;15.70;44.70;14.60;99329.00;;;;5073990;28;19923;-62
2021/12/08 09:47:46;;;;;;;;;;;15.70;44.70;14.60;99344.00;;;;5069853;28;19935;-61
2021/12/08 09:50:32;;;;;;;;;;;15.80;44.80;14.60;99343.00;;;;5069976;28;19924;-61
2021/12/08 09:53:19;;;;;;;;;;;15.70;44.80;14.60;99336.00;;;;5049063;28;20986;-61
2021/12/08 09:56:08;;;;;;;;;;;15.70;44.80;14.70;99328.00;;;;5065779;28;19916;-61
2021/12/08 09:58:55;;;;;;;;;;;15.70;44.80;14.70;99335.00;;;;5074453;28;19916;-62
2021/12/08 10:01:42;;;;;;;;;;;15.80;44.80;14.70;99335.00;;;;5072998;28;19923;-62
2021/12/08 10:04:28;;;;;;;;;;;15.80;44.80;14.60;99340.00;;;;5069219;28;19924;-62
2021/12/08 10:07:14;;;;;;;;;;;15.80;44.80;14.60;99339.00;;;;5077924;28;19946;-62
2021/12/08 10:10:01;;;;;;;;;;;15.80;44.80;14.70;99345.00;;;;5086370;28;19927;-62
2021/12/08 10:12:47;;;;;;;;;;;15.80;44.80;14.70;99342.00;;;;5065451;28;20004;-62
2021/12/08 10:15:33;;;;;;;;;;;15.80;44.80;14.70;99343.00;;;;5066104;28;19924;-62
2021/12/08 10:18:19;;;;;;;;;;;15.80;44.80;14.70;99335.00;;;;5074818;28;19916;-62
2021/12/08 10:21:05;;;;;;;;;;;15.80;44.80;14.70;99330.00;;;;5063738;28;19917;-62
2021/12/08 10:23:51;;;;;;;;;;;15.80;44.80;14.70;99326.00;;;;5080447;28;20373;-62
2021/12/08 10:26:37;;;;;;;;;;;15.80;44.80;14.70;99320.00;;;;5076460;28;19920;-61
2021/12/08 10:29:27;;;;;;;;;;;15.80;44.80;14.70;99314.00;;;;5065260;28;19920;-62
2021/12/08 10:32:15;;;;;;;;;;;15.80;44.80;14.70;99322.00;;;;5076777;28;19943;-62
2021/12/08 10:35:06;;;;;;;;;;;15.80;44.80;14.70;99326.00;;;;5076320;28;19916;-62
2021/12/08 10:37:59;;;;;;;;;;;15.80;44.80;14.70;99325.00;;;;5074115;28;19916;-62
2021/12/08 10:40:56;;;;;;;;;;;15.80;44.80;14.70;99321.00;;;;5071611;28;20015;-62
2021/12/08 10:43:58;;;;;;;;;;;15.90;44.90;14.70;99326.00;;;;5096309;28;19959;-62
2021/12/08 10:46:44;;;;;;;;;;;15.90;44.80;14.70;99324.00;;;;5086807;28;19916;-62
2021/12/08 10:55:27;;;;;;;;;;;15.90;44.90;14.70;99339.00;;;;5078882;28;20366;-62
2021/12/08 10:58:20;;;;;;;;;;;15.90;44.80;14.70;99323.00;;;;5095527;28;19955;-61
2021/12/08 11:01:18;;;;;;;;;;;15.90;44.90;14.80;99336.00;;;;5090633;28;19924;-61
2021/12/08 11:04:06;;;;;;;;;;;15.90;44.90;14.70;99341.00;;;;5061135;28;19916;-62
2021/12/08 11:06:52;;;;;;;;;;;15.90;44.90;14.70;99339.00;;;;5050474;28;19924;-61
2021/12/08 11:09:40;;;;;;;;;;;15.90;44.80;14.80;99352.00;;;;5046999;28;20011;-62
2021/12/08 11:12:40;;;;;;;;;;;15.90;44.80;14.80;99369.00;;;;5055832;28;20381;-62
2021/12/08 11:15:27;;;;;;;;;;;15.90;44.80;14.80;99368.00;;;;5079875;28;19962;-62
2021/12/08 11:18:21;;;;;;;;;;;15.90;44.80;14.70;99361.00;;;;5069199;28;20322;-62
2021/12/08 11:21:19;;;;;;;;;;;15.90;44.90;14.70;99370.00;;;;5090803;28;19939;-62
2021/12/08 11:24:45;;;;;;;;;;;15.90;44.80;14.70;99370.00;;;;5075469;28;19923;-62
2021/12/08 11:27:33;;;;;;;;;;;15.90;44.80;14.70;99361.00;;;;5038695;28;20233;-62
2021/12/08 11:30:24;;;;;;;;;;;15.90;44.80;14.70;99364.00;;;;5080868;28;19920;-62
2021/12/08 11:33:19;;;;;;;;;;;15.90;44.80;14.70;99357.00;;;;5073358;28;20388;-62
2021/12/08 11:36:11;;;;;;;;;;;15.90;44.90;14.70;99358.00;;;;5071580;28;19923;-62
2021/12/08 11:38:58;;;;;;;;;;;15.90;44.90;14.70;99362.00;;;;5066513;28;19965;-62
2021/12/08 11:41:51;;;;;;;;;;;15.90;44.90;14.70;99363.00;;;;5071105;28;20321;-62
2021/12/08 11:44:40;;;;;;;;;;;15.90;44.90;14.70;99357.00;;;;5047390;28;19920;-62
2021/12/08 11:47:32;;;;;;;;;;;15.90;44.90;14.70;99354.00;;;;5071729;28;19921;-62
2021/12/08 11:50:22;;;;;;;;;;;15.90;44.90;14.80;99350.00;;;;5077738;28;19930;-61
2021/12/08 11:53:08;;;;;;;;;;;15.90;44.90;14.80;99361.00;;;;5072150;28;19956;-62
2021/12/08 11:55:54;;;;;;;;;;;15.90;44.90;14.80;99364.00;;;;5068732;28;19916;-62
2021/12/08 11:58:54;;;;;;;;;;;15.90;44.90;14.80;99371.00;;;;5075019;28;20262;-62
2021/12/08 12:01:40;;;;;;;;;;;15.90;44.90;14.80;99379.00;;;;5085031;28;19931;-62
2021/12/08 12:04:26;;;;;;;;;;;15.90;44.90;14.80;99385.00;;;;5075432;28;19919;-62
2021/12/08 12:07:13;;;;;;;;;;;15.90;44.90;14.80;99382.00;;;;5069966;28;19931;-62
2021/12/08 12:09:59;;;;;;;;;;;15.90;44.90;14.80;99393.00;;;;5074593;28;19916;-62
2021/12/08 12:12:46;;;;;;;;;;;15.90;44.90;14.80;99390.00;;;;5066220;28;19916;-62
2021/12/08 12:15:32;;;;;;;;;;;15.90;44.90;14.80;99387.00;;;;5085679;28;20381;-62
2021/12/08 12:18:19;;;;;;;;;;;15.90;44.90;14.80;99388.00;;;;5059493;28;20015;-61
2021/12/08 12:21:13;;;;;;;;;;;15.90;44.90;14.80;99385.00;;;;5044225;28;19925;-62
2021/12/08 12:24:54;;;;;;;;;;;15.90;44.90;14.80;99396.00;;;;5088282;28;20354;-62
2021/12/08 12:27:55;;;;;;;;;;;15.90;44.90;14.80;99404.00;;;;5041160;28;19974;-62
2021/12/08 12:31:10;;;;;;;;;;;15.90;44.90;14.80;99398.00;;;;5067884;28;19916;-62
2021/12/08 12:33:56;;;;;;;;;;;15.90;44.90;14.70;99396.00;;;;5082293;28;19926;-61
2021/12/08 12:36:42;;;;;;;;;;;15.90;44.90;14.70;99387.00;;;;5048843;28;19923;-63
2021/12/08 12:39:28;;;;;;;;;;;16.20;45.10;14.70;99386.00;;;;5051091;28;19935;-61
2021/12/08 12:42:16;;;;;;;;;;;15.90;45.00;14.80;99390.00;;;;5053660;28;19917;-62
2021/12/08 12:45:08;;;;;;;;;;;15.90;44.90;14.70;99390.00;;;;5056965;28;21806;-62
2021/12/08 12:48:13;;;;;;;;;;;16.00;45.00;14.80;99396.00;;;;5056716;28;19931;-62
2021/12/08 12:51:01;;;;;;;;;;;15.90;44.90;14.70;99393.00;;;;5087579;28;20366;-63
2021/12/08 12:53:53;;;;;;;;;;;15.90;44.90;14.80;99388.00;;;;5078594;28;19917;-62
2021/12/08 12:56:49;;;;;;;;;;;15.90;45.00;14.80;99387.00;;;;5056324;28;19922;-62
2021/12/08 12:59:39;;;;;;;;;;;15.90;45.00;14.80;99384.00;;;;5071922;28;19916;-62
2021/12/08 13:02:34;;;;;;;;;;;15.90;45.00;14.80;99376.00;;;;5035395;28;19924;-62
2021/12/08 13:05:21;;;;;;;;;;;16.00;45.00;14.80;99371.00;;;;5077105;28;19927;-62
2021/12/08 13:08:07;;;;;;;;;;;15.90;44.90;14.80;99377.00;;;;5068254;28;20573;-62
2021/12/08 13:10:55;;;;;;;;;;;16.00;45.00;14.80;99372.00;;;;5073352;28;19924;-61
2021/12/08 13:13:46;;;;;;;;;;;15.90;44.90;14.80;99379.00;;;;5062610;28;20337;-61
2021/12/08 13:16:35;;;;;;;;;;;15.90;44.90;14.80;99383.00;;;;5072262;28;20456;-62
2021/12/08 13:19:22;;;;;;;;;;;15.90;44.90;14.80;99387.00;;;;5070170;28;19916;-62
2021/12/08 13:22:08;;;;;;;;;;;15.90;44.90;14.80;99390.00;;;;5056497;28;19925;-62
2021/12/08 13:24:54;;;;;;;;;;;15.90;44.80;14.80;99393.00;;;;5064906;28;20362;-62
2021/12/08 13:27:48;;;;;;;;;;;16.00;44.90;14.80;99396.00;;;;5054641;28;19921;-61
2021/12/08 13:30:34;;;;;;;;;;;15.90;44.80;14.80;99404.00;;;;5055939;28;19924;-61
2021/12/08 13:33:37;;;;;;;;;;;16.00;44.90;14.80;99406.00;;;;5081924;28;20006;-61
2021/12/08 13:36:30;;;;;;;;;;;15.90;44.80;14.80;99407.00;;;;5020062;28;19978;-61
2021/12/08 13:39:27;;;;;;;;;;;15.90;44.80;14.80;99413.00;;;;5079020;28;19920;-62
2021/12/08 13:42:16;;;;;;;;;;;15.90;44.80;14.80;99412.00;;;;5036181;28;19952;-61
2021/12/08 13:45:09;;;;;;;;;;;15.90;44.80;14.80;99418.00;;;;5073235;28;19923;-62
2021/12/08 13:48:06;;;;;;;;;;;15.90;44.80;14.80;99413.00;;;;5055689;28;20374;-62
2021/12/08 13:50:52;;;;;;;;;;;16.00;44.90;14.80;99414.00;;;;5071620;28;19917;-61
2021/12/08 13:53:38;;;;;;;;;;;15.90;44.80;14.80;99426.00;;;;5066911;28;20105;-62
2021/12/08 13:56:39;;;;;;;;;;;16.00;44.90;14.80;99413.00;;;;5047317;28;20378;-62
2021/12/08 13:59:45;;;;;;;;;;;16.00;44.90;14.80;99413.00;;;;5067257;28;20014;-62
2021/12/08 14:02:36;;;;;;;;;;;16.00;44.80;14.80;99416.00;;;;5065602;28;19917;-61
2021/12/08 14:05:27;;;;;;;;;;;16.00;44.80;14.80;99418.00;;;;5061702;28;20372;-61
2021/12/08 14:08:15;;;;;;;;;;;16.00;44.80;14.80;99424.00;;;;5089877;28;19924;-62
2021/12/08 14:11:07;;;;;;;;;;;16.00;44.90;14.80;99434.00;;;;5066872;28;20011;-61
2021/12/08 14:13:53;;;;;;;;;;;16.00;44.80;14.80;99432.00;;;;5076934;28;19916;-62
2021/12/08 14:16:39;;;;;;;;;;;16.00;44.90;14.80;99437.00;;;;5054646;28;19920;-62
2021/12/08 14:19:39;;;;;;;;;;;16.00;44.80;14.80;99431.00;;;;5074515;28;19925;-61
2021/12/08 14:22:38;;;;;;;;;;;16.00;44.80;14.80;99441.00;;;;5060473;28;19947;-62
2021/12/08 14:26:01;;;;;;;;;;;16.00;44.80;14.80;99443.00;;;;5070611;28;20357;-62
2021/12/08 14:28:57;;;;;;;;;;;16.00;44.80;14.80;99451.00;;;;5069004;28;21859;-62
2021/12/08 14:31:45;;;;;;;;;;;16.00;44.80;14.80;99451.00;;;;5073618;28;19952;-62
2021/12/08 14:34:39;;;;;;;;;;;16.00;44.80;14.80;99453.00;;;;5071908;28;19916;-62
2021/12/08 14:37:25;;;;;;;;;;;16.00;44.80;14.80;99459.00;;;;5070301;28;19916;-62